sensor_id;sensor_type;location;lat;lon;timestamp;temperature;humidity
8888;DHT22;4480;52.370;9.748;2022-12-20T00:00:10;6.40;99.90
8888;DHT22;4480;52.370;9.748;2022-12-20T00:02:37;6.50;99.90
8888;DHT22;4480;52.370;9.748;2022-12-20T00:05:04;6.50;99.90
8888;DHT22;4480;52.370;9.748;2022-12-20T00:07:32;6.40;99.90
8888;DHT22;4480;52.370;9.748;2022-12-20T00:09:59;6.40;99.90
8888;DHT22;4480;52.370;9.748;2022-12-20T00:12:25;6.30;99.90
8888;DHT22;4480;52.370;9.748;2022-12-20T00:14:52;6.30;99.90
8888;DHT22;4480;52.370;9.748;2022-12-20T00:17:18;6.30;99.90
8888;DHT22;4480;52.370;9.748;2022-12-20T00:19:45;6.30;99.90
8888;DHT22;4480;52.370;9.748;2022-12-20T00:22:11;6.30;99.90
8888;DHT22;4480;52.370;9.748;2022-12-20T00:24:39;6.30;99.90
8888;DHT22;4480;52.370;9.748;2022-12-20T00:27:06;6.30;99.90
8888;DHT22;4480;52.370;9.748;2022-12-20T00:29:32;6.30;99.90
8888;DHT22;4480;52.370;9.748;2022-12-20T00:32:00;6.30;99.90
8888;DHT22;4480;52.370;9.748;2022-12-20T00:34:26;6.20;99.90
8888;DHT22;4480;52.370;9.748;2022-12-20T00:36:53;6.20;99.90
8888;DHT22;4480;52.370;9.748;2022-12-20T00:39:19;6.20;99.90
8888;DHT22;4480;52.370;9.748;2022-12-20T00:41:47;6.20;99.90
8888;DHT22;4480;52.370;9.748;2022-12-20T00:44:14;6.20;99.90
8888;DHT22;4480;52.370;9.748;2022-12-20T00:46:40;6.20;99.90
8888;DHT22;4480;52.370;9.748;2022-12-20T00:49:07;6.10;99.90
8888;DHT22;4480;52.370;9.748;2022-12-20T00:51:33;6.10;99.90
8888;DHT22;4480;52.370;9.748;2022-12-20T00:54:00;6.10;99.90
8888;DHT22;4480;52.370;9.748;2022-12-20T00:56:27;6.10;99.90
8888;DHT22;4480;52.370;9.748;2022-12-20T00:58:56;6.20;99.90
8888;DHT22;4480;52.370;9.748;2022-12-20T01:01:23;6.20;99.90
8888;DHT22;4480;52.370;9.748;2022-12-20T01:03:50;6.20;99.90
8888;DHT22;4480;52.370;9.748;2022-12-20T01:06:17;6.20;99.90
8888;DHT22;4480;52.370;9.748;2022-12-20T01:08:44;6.20;99.90
8888;DHT22;4480;52.370;9.748;2022-12-20T01:11:12;6.30;99.90
8888;DHT22;4480;52.370;9.748;2022-12-20T01:13:40;6.30;99.90
8888;DHT22;4480;52.370;9.748;2022-12-20T01:16:09;6.30;99.90
8888;DHT22;4480;52.370;9.748;2022-12-20T01:18:36;6.30;99.90
8888;DHT22;4480;52.370;9.748;2022-12-20T01:21:04;6.30;99.90
8888;DHT22;4480;52.370;9.748;2022-12-20T01:23:31;6.30;99.90
8888;DHT22;4480;52.370;9.748;2022-12-20T01:25:58;6.40;99.90
8888;DHT22;4480;52.370;9.748;2022-12-20T01:28:25;6.40;99.90
8888;DHT22;4480;52.370;9.748;2022-12-20T01:30:51;6.50;99.90
8888;DHT22;4480;52.370;9.748;2022-12-20T01:33:19;6.50;99.90
8888;DHT22;4480;52.370;9.748;2022-12-20T01:35:53;6.50;99.90
8888;DHT22;4480;52.370;9.748;2022-12-20T01:38:20;6.50;99.90
8888;DHT22;4480;52.370;9.748;2022-12-20T01:40:46;6.60;99.90
8888;DHT22;4480;52.370;9.748;2022-12-20T01:43:13;6.60;99.90
8888;DHT22;4480;52.370;9.748;2022-12-20T01:45:40;6.60;99.90
8888;DHT22;4480;52.370;9.748;2022-12-20T01:48:07;6.60;99.90
8888;DHT22;4480;52.370;9.748;2022-12-20T01:50:35;6.70;99.90
8888;DHT22;4480;52.370;9.748;2022-12-20T01:53:02;6.80;99.90
8888;DHT22;4480;52.370;9.748;2022-12-20T01:55:29;6.80;99.90
8888;DHT22;4480;52.370;9.748;2022-12-20T01:57:58;6.80;99.90
8888;DHT22;4480;52.370;9.748;2022-12-20T02:00:26;6.80;99.90
8888;DHT22;4480;52.370;9.748;2022-12-20T02:02:53;6.90;99.90
8888;DHT22;4480;52.370;9.748;2022-12-20T02:05:21;6.90;99.90
8888;DHT22;4480;52.370;9.748;2022-12-20T02:07:50;6.90;99.90
8888;DHT22;4480;52.370;9.748;2022-12-20T02:10:18;6.90;99.90
8888;DHT22;4480;52.370;9.748;2022-12-20T02:12:46;7.00;99.90
8888;DHT22;4480;52.370;9.748;2022-12-20T02:15:20;7.00;99.90
8888;DHT22;4480;52.370;9.748;2022-12-20T02:17:52;7.10;99.90
8888;DHT22;4480;52.370;9.748;2022-12-20T02:20:36;7.10;99.90
8888;DHT22;4480;52.370;9.748;2022-12-20T02:23:23;7.20;99.90
8888;DHT22;4480;52.370;9.748;2022-12-20T02:25:56;7.30;99.90
8888;DHT22;4480;52.370;9.748;2022-12-20T02:28:32;7.30;99.90
8888;DHT22;4480;52.370;9.748;2022-12-20T02:31:09;7.40;99.90
8888;DHT22;4480;52.370;9.748;2022-12-20T02:33:37;7.40;99.90
8888;DHT22;4480;52.370;9.748;2022-12-20T02:36:04;7.50;99.90
8888;DHT22;4480;52.370;9.748;2022-12-20T02:38:32;7.50;99.90
8888;DHT22;4480;52.370;9.748;2022-12-20T02:41:00;7.50;99.90
8888;DHT22;4480;52.370;9.748;2022-12-20T02:43:27;7.60;99.90
8888;DHT22;4480;52.370;9.748;2022-12-20T02:46:14;7.60;99.90
8888;DHT22;4480;52.370;9.748;2022-12-20T02:48:41;7.60;99.90
8888;DHT22;4480;52.370;9.748;2022-12-20T02:51:07;7.70;99.90
8888;DHT22;4480;52.370;9.748;2022-12-20T02:53:35;7.70;99.90
8888;DHT22;4480;52.370;9.748;2022-12-20T02:56:04;7.70;99.90
8888;DHT22;4480;52.370;9.748;2022-12-20T02:58:33;7.70;99.90
8888;DHT22;4480;52.370;9.748;2022-12-20T03:01:02;7.70;99.90
8888;DHT22;4480;52.370;9.748;2022-12-20T03:03:31;7.80;99.90
8888;DHT22;4480;52.370;9.748;2022-12-20T03:05:58;7.80;99.90
8888;DHT22;4480;52.370;9.748;2022-12-20T03:08:24;7.80;99.90
8888;DHT22;4480;52.370;9.748;2022-12-20T03:10:52;7.80;99.90
8888;DHT22;4480;52.370;9.748;2022-12-20T03:13:19;7.80;99.90
8888;DHT22;4480;52.370;9.748;2022-12-20T03:15:45;7.80;99.90
8888;DHT22;4480;52.370;9.748;2022-12-20T03:18:12;7.80;99.90
8888;DHT22;4480;52.370;9.748;2022-12-20T03:20:40;7.90;99.90
8888;DHT22;4480;52.370;9.748;2022-12-20T03:23:06;7.90;99.90
8888;DHT22;4480;52.370;9.748;2022-12-20T03:25:33;7.90;99.90
8888;DHT22;4480;52.370;9.748;2022-12-20T03:27:59;7.90;99.90
8888;DHT22;4480;52.370;9.748;2022-12-20T03:30:26;8.00;99.90
8888;DHT22;4480;52.370;9.748;2022-12-20T03:32:53;8.00;99.90
8888;DHT22;4480;52.370;9.748;2022-12-20T03:35:19;8.00;99.90
8888;DHT22;4480;52.370;9.748;2022-12-20T03:37:47;8.00;99.90
8888;DHT22;4480;52.370;9.748;2022-12-20T03:40:14;8.00;99.90
8888;DHT22;4480;52.370;9.748;2022-12-20T03:42:41;8.00;99.90
8888;DHT22;4480;52.370;9.748;2022-12-20T03:45:08;8.00;99.90
8888;DHT22;4480;52.370;9.748;2022-12-20T03:47:35;8.00;99.90
8888;DHT22;4480;52.370;9.748;2022-12-20T03:50:01;8.00;99.90
8888;DHT22;4480;52.370;9.748;2022-12-20T03:52:28;8.00;99.90
8888;DHT22;4480;52.370;9.748;2022-12-20T03:54:56;8.00;99.90
8888;DHT22;4480;52.370;9.748;2022-12-20T03:57:22;8.00;99.90
8888;DHT22;4480;52.370;9.748;2022-12-20T03:59:49;7.90;99.90
8888;DHT22;4480;52.370;9.748;2022-12-20T04:02:15;7.90;99.90
8888;DHT22;4480;52.370;9.748;2022-12-20T04:04:42;7.80;99.90
8888;DHT22;4480;52.370;9.748;2022-12-20T04:07:09;7.80;99.90
8888;DHT22;4480;52.370;9.748;2022-12-20T04:10:49;7.80;99.90
8888;DHT22;4480;52.370;9.748;2022-12-20T04:13:33;7.80;99.90
8888;DHT22;4480;52.370;9.748;2022-12-20T04:16:00;7.80;99.90
8888;DHT22;4480;52.370;9.748;2022-12-20T04:18:27;7.80;99.90
8888;DHT22;4480;52.370;9.748;2022-12-20T04:20:53;7.90;99.90
8888;DHT22;4480;52.370;9.748;2022-12-20T04:23:20;7.90;99.90
8888;DHT22;4480;52.370;9.748;2022-12-20T04:25:48;8.00;99.90
8888;DHT22;4480;52.370;9.748;2022-12-20T04:28:15;8.00;99.90
8888;DHT22;4480;52.370;9.748;2022-12-20T04:30:42;8.10;99.90
8888;DHT22;4480;52.370;9.748;2022-12-20T04:33:08;8.10;99.90
8888;DHT22;4480;52.370;9.748;2022-12-20T04:35:36;8.10;99.90
8888;DHT22;4480;52.370;9.748;2022-12-20T04:38:03;8.20;99.90
8888;DHT22;4480;52.370;9.748;2022-12-20T04:40:29;8.20;99.90
8888;DHT22;4480;52.370;9.748;2022-12-20T04:42:57;8.30;99.90
8888;DHT22;4480;52.370;9.748;2022-12-20T04:45:24;8.30;99.90
8888;DHT22;4480;52.370;9.748;2022-12-20T04:47:51;8.30;99.90
8888;DHT22;4480;52.370;9.748;2022-12-20T04:50:18;8.30;99.90
8888;DHT22;4480;52.370;9.748;2022-12-20T04:52:44;8.30;99.90
8888;DHT22;4480;52.370;9.748;2022-12-20T04:55:29;8.30;99.90
8888;DHT22;4480;52.370;9.748;2022-12-20T04:57:55;8.30;99.90
8888;DHT22;4480;52.370;9.748;2022-12-20T05:00:23;8.30;99.90
8888;DHT22;4480;52.370;9.748;2022-12-20T05:02:50;8.40;99.90
8888;DHT22;4480;52.370;9.748;2022-12-20T05:05:17;8.40;99.90
8888;DHT22;4480;52.370;9.748;2022-12-20T05:07:44;8.40;99.90
8888;DHT22;4480;52.370;9.748;2022-12-20T05:10:11;8.40;99.90
8888;DHT22;4480;52.370;9.748;2022-12-20T05:12:37;8.40;99.90
8888;DHT22;4480;52.370;9.748;2022-12-20T05:15:05;8.40;99.90
8888;DHT22;4480;52.370;9.748;2022-12-20T05:17:33;8.40;99.90
8888;DHT22;4480;52.370;9.748;2022-12-20T05:20:00;8.40;99.90
8888;DHT22;4480;52.370;9.748;2022-12-20T05:22:27;8.40;99.90
8888;DHT22;4480;52.370;9.748;2022-12-20T05:25:11;8.50;99.90
8888;DHT22;4480;52.370;9.748;2022-12-20T05:27:55;8.50;99.90
8888;DHT22;4480;52.370;9.748;2022-12-20T05:30:22;8.50;99.90
8888;DHT22;4480;52.370;9.748;2022-12-20T05:32:51;8.40;99.90
8888;DHT22;4480;52.370;9.748;2022-12-20T05:35:18;8.40;99.90
8888;DHT22;4480;52.370;9.748;2022-12-20T05:37:45;8.40;99.90
8888;DHT22;4480;52.370;9.748;2022-12-20T05:40:12;8.40;99.90
8888;DHT22;4480;52.370;9.748;2022-12-20T05:42:40;8.40;99.90
8888;DHT22;4480;52.370;9.748;2022-12-20T05:45:07;8.50;99.90
8888;DHT22;4480;52.370;9.748;2022-12-20T05:47:36;8.50;99.90
8888;DHT22;4480;52.370;9.748;2022-12-20T05:50:06;8.50;99.90
8888;DHT22;4480;52.370;9.748;2022-12-20T05:52:33;8.50;99.90
8888;DHT22;4480;52.370;9.748;2022-12-20T05:54:59;8.50;99.90
8888;DHT22;4480;52.370;9.748;2022-12-20T05:57:26;8.50;99.90
8888;DHT22;4480;52.370;9.748;2022-12-20T05:59:53;8.50;99.90
8888;DHT22;4480;52.370;9.748;2022-12-20T06:02:20;8.50;99.90
8888;DHT22;4480;52.370;9.748;2022-12-20T06:04:46;8.50;99.90
8888;DHT22;4480;52.370;9.748;2022-12-20T06:07:14;8.50;99.90
8888;DHT22;4480;52.370;9.748;2022-12-20T06:09:41;8.50;99.90
8888;DHT22;4480;52.370;9.748;2022-12-20T06:12:08;8.60;99.90
8888;DHT22;4480;52.370;9.748;2022-12-20T06:14:34;8.60;99.90
8888;DHT22;4480;52.370;9.748;2022-12-20T06:17:01;8.60;99.90
8888;DHT22;4480;52.370;9.748;2022-12-20T06:19:28;8.60;99.90
8888;DHT22;4480;52.370;9.748;2022-12-20T06:21:55;8.60;99.90
8888;DHT22;4480;52.370;9.748;2022-12-20T06:24:23;8.60;99.90
8888;DHT22;4480;52.370;9.748;2022-12-20T06:26:51;8.60;99.90
8888;DHT22;4480;52.370;9.748;2022-12-20T06:29:18;8.60;99.90
8888;DHT22;4480;52.370;9.748;2022-12-20T06:31:45;8.60;99.90
8888;DHT22;4480;52.370;9.748;2022-12-20T06:34:12;8.70;99.90
8888;DHT22;4480;52.370;9.748;2022-12-20T06:36:39;8.70;99.90
8888;DHT22;4480;52.370;9.748;2022-12-20T06:39:06;8.70;99.90
8888;DHT22;4480;52.370;9.748;2022-12-20T06:41:35;8.70;99.90
8888;DHT22;4480;52.370;9.748;2022-12-20T06:44:01;8.70;99.90
8888;DHT22;4480;52.370;9.748;2022-12-20T06:46:28;8.80;99.90
8888;DHT22;4480;52.370;9.748;2022-12-20T06:48:55;8.80;99.90
8888;DHT22;4480;52.370;9.748;2022-12-20T06:51:22;8.80;99.90
8888;DHT22;4480;52.370;9.748;2022-12-20T06:53:48;8.80;99.90
8888;DHT22;4480;52.370;9.748;2022-12-20T06:56:15;8.80;99.90
8888;DHT22;4480;52.370;9.748;2022-12-20T06:58:44;8.90;99.90
8888;DHT22;4480;52.370;9.748;2022-12-20T07:01:11;8.80;99.90
8888;DHT22;4480;52.370;9.748;2022-12-20T07:03:38;8.80;99.90
8888;DHT22;4480;52.370;9.748;2022-12-20T07:06:05;8.80;99.90
8888;DHT22;4480;52.370;9.748;2022-12-20T07:08:31;8.80;99.90
8888;DHT22;4480;52.370;9.748;2022-12-20T07:11:03;8.80;99.90
8888;DHT22;4480;52.370;9.748;2022-12-20T07:13:30;8.80;99.90
8888;DHT22;4480;52.370;9.748;2022-12-20T07:15:58;8.80;99.90
8888;DHT22;4480;52.370;9.748;2022-12-20T07:18:25;8.80;99.90
8888;DHT22;4480;52.370;9.748;2022-12-20T07:20:52;8.80;99.90
8888;DHT22;4480;52.370;9.748;2022-12-20T07:23:19;8.80;99.90
8888;DHT22;4480;52.370;9.748;2022-12-20T07:25:52;8.80;99.90
8888;DHT22;4480;52.370;9.748;2022-12-20T07:28:19;8.80;99.90
8888;DHT22;4480;52.370;9.748;2022-12-20T07:30:46;8.80;99.90
8888;DHT22;4480;52.370;9.748;2022-12-20T07:33:14;8.80;99.90
8888;DHT22;4480;52.370;9.748;2022-12-20T07:35:41;8.80;99.90
8888;DHT22;4480;52.370;9.748;2022-12-20T07:38:08;8.80;99.90
8888;DHT22;4480;52.370;9.748;2022-12-20T07:40:35;8.90;99.90
8888;DHT22;4480;52.370;9.748;2022-12-20T07:43:01;8.80;99.90
8888;DHT22;4480;52.370;9.748;2022-12-20T07:45:28;8.90;99.90
8888;DHT22;4480;52.370;9.748;2022-12-20T07:47:55;8.90;99.90
8888;DHT22;4480;52.370;9.748;2022-12-20T07:50:23;8.90;99.90
8888;DHT22;4480;52.370;9.748;2022-12-20T07:52:52;9.00;99.90
8888;DHT22;4480;52.370;9.748;2022-12-20T07:55:19;9.00;99.90
8888;DHT22;4480;52.370;9.748;2022-12-20T07:57:49;9.00;99.90
8888;DHT22;4480;52.370;9.748;2022-12-20T08:00:17;9.00;99.90
8888;DHT22;4480;52.370;9.748;2022-12-20T08:02:48;9.00;99.90
8888;DHT22;4480;52.370;9.748;2022-12-20T08:05:16;9.00;99.90
8888;DHT22;4480;52.370;9.748;2022-12-20T08:07:45;9.00;99.90
8888;DHT22;4480;52.370;9.748;2022-12-20T08:10:13;9.10;99.90
8888;DHT22;4480;52.370;9.748;2022-12-20T08:12:42;9.10;99.90
8888;DHT22;4480;52.370;9.748;2022-12-20T08:15:10;9.10;99.90
8888;DHT22;4480;52.370;9.748;2022-12-20T08:17:37;9.20;99.90
8888;DHT22;4480;52.370;9.748;2022-12-20T08:20:05;9.20;99.90
8888;DHT22;4480;52.370;9.748;2022-12-20T08:22:33;9.20;99.90
8888;DHT22;4480;52.370;9.748;2022-12-20T08:25:01;9.30;99.90
8888;DHT22;4480;52.370;9.748;2022-12-20T08:27:29;9.30;99.90
8888;DHT22;4480;52.370;9.748;2022-12-20T08:29:56;9.30;99.90
8888;DHT22;4480;52.370;9.748;2022-12-20T08:32:22;9.30;99.90
8888;DHT22;4480;52.370;9.748;2022-12-20T08:34:49;9.30;99.90
8888;DHT22;4480;52.370;9.748;2022-12-20T08:37:17;9.40;99.90
8888;DHT22;4480;52.370;9.748;2022-12-20T08:39:44;9.40;99.90
8888;DHT22;4480;52.370;9.748;2022-12-20T08:42:13;9.40;99.90
8888;DHT22;4480;52.370;9.748;2022-12-20T08:44:39;9.40;99.90
8888;DHT22;4480;52.370;9.748;2022-12-20T08:47:06;9.40;99.90
8888;DHT22;4480;52.370;9.748;2022-12-20T08:49:33;9.50;99.90
8888;DHT22;4480;52.370;9.748;2022-12-20T08:52:00;9.50;99.90
8888;DHT22;4480;52.370;9.748;2022-12-20T08:54:26;9.50;99.90
8888;DHT22;4480;52.370;9.748;2022-12-20T08:56:53;9.60;99.90
8888;DHT22;4480;52.370;9.748;2022-12-20T08:59:21;9.60;99.90
8888;DHT22;4480;52.370;9.748;2022-12-20T09:01:48;9.60;99.90
8888;DHT22;4480;52.370;9.748;2022-12-20T09:04:15;9.60;99.90
8888;DHT22;4480;52.370;9.748;2022-12-20T09:06:41;9.70;99.90
8888;DHT22;4480;52.370;9.748;2022-12-20T09:09:08;9.70;99.90
8888;DHT22;4480;52.370;9.748;2022-12-20T09:11:35;9.70;99.90
8888;DHT22;4480;52.370;9.748;2022-12-20T09:14:02;9.70;99.90
8888;DHT22;4480;52.370;9.748;2022-12-20T09:16:31;9.70;99.90
8888;DHT22;4480;52.370;9.748;2022-12-20T09:19:00;9.80;99.90
8888;DHT22;4480;52.370;9.748;2022-12-20T09:21:27;9.80;99.90
8888;DHT22;4480;52.370;9.748;2022-12-20T09:23:55;9.80;99.90
8888;DHT22;4480;52.370;9.748;2022-12-20T09:26:23;9.80;99.90
8888;DHT22;4480;52.370;9.748;2022-12-20T09:28:50;9.80;99.90
8888;DHT22;4480;52.370;9.748;2022-12-20T09:31:18;9.90;99.90
8888;DHT22;4480;52.370;9.748;2022-12-20T09:33:47;9.90;99.90
8888;DHT22;4480;52.370;9.748;2022-12-20T09:36:15;9.90;99.90
8888;DHT22;4480;52.370;9.748;2022-12-20T09:38:43;9.90;99.90
8888;DHT22;4480;52.370;9.748;2022-12-20T09:41:21;10.00;99.90
8888;DHT22;4480;52.370;9.748;2022-12-20T09:43:50;10.00;99.90
8888;DHT22;4480;52.370;9.748;2022-12-20T09:46:17;10.10;99.90
8888;DHT22;4480;52.370;9.748;2022-12-20T09:48:46;10.10;99.90
8888;DHT22;4480;52.370;9.748;2022-12-20T09:51:23;10.10;99.90
8888;DHT22;4480;52.370;9.748;2022-12-20T09:54:00;10.20;99.90
8888;DHT22;4480;52.370;9.748;2022-12-20T09:56:32;10.20;99.90
8888;DHT22;4480;52.370;9.748;2022-12-20T09:59:03;10.20;99.90
8888;DHT22;4480;52.370;9.748;2022-12-20T10:01:32;10.20;99.90
8888;DHT22;4480;52.370;9.748;2022-12-20T10:04:03;10.30;99.90
8888;DHT22;4480;52.370;9.748;2022-12-20T10:06:39;10.30;99.90
8888;DHT22;4480;52.370;9.748;2022-12-20T10:09:12;10.40;99.90
8888;DHT22;4480;52.370;9.748;2022-12-20T10:11:57;10.40;99.90
8888;DHT22;4480;52.370;9.748;2022-12-20T10:14:58;10.50;99.90
8888;DHT22;4480;52.370;9.748;2022-12-20T10:17:37;10.50;99.90
8888;DHT22;4480;52.370;9.748;2022-12-20T10:20:23;10.50;99.90
8888;DHT22;4480;52.370;9.748;2022-12-20T10:22:58;10.50;99.90
8888;DHT22;4480;52.370;9.748;2022-12-20T10:25:29;10.50;99.90
8888;DHT22;4480;52.370;9.748;2022-12-20T10:27:57;10.50;99.90
8888;DHT22;4480;52.370;9.748;2022-12-20T10:30:32;10.60;99.90
8888;DHT22;4480;52.370;9.748;2022-12-20T10:33:00;10.60;99.90
8888;DHT22;4480;52.370;9.748;2022-12-20T10:35:29;10.60;99.90
8888;DHT22;4480;52.370;9.748;2022-12-20T10:38:02;10.70;99.90
8888;DHT22;4480;52.370;9.748;2022-12-20T10:40:32;10.80;99.90
8888;DHT22;4480;52.370;9.748;2022-12-20T10:43:00;10.80;99.90
8888;DHT22;4480;52.370;9.748;2022-12-20T10:45:33;10.90;99.90
8888;DHT22;4480;52.370;9.748;2022-12-20T10:48:02;10.90;99.90
8888;DHT22;4480;52.370;9.748;2022-12-20T10:50:30;10.90;99.90
8888;DHT22;4480;52.370;9.748;2022-12-20T10:53:11;11.00;99.90
8888;DHT22;4480;52.370;9.748;2022-12-20T10:55:52;11.00;99.90
8888;DHT22;4480;52.370;9.748;2022-12-20T10:58:31;11.10;99.90
8888;DHT22;4480;52.370;9.748;2022-12-20T11:01:04;11.10;99.90
8888;DHT22;4480;52.370;9.748;2022-12-20T11:03:32;11.10;99.90
8888;DHT22;4480;52.370;9.748;2022-12-20T11:06:02;11.20;99.90
8888;DHT22;4480;52.370;9.748;2022-12-20T11:08:30;11.20;99.90
8888;DHT22;4480;52.370;9.748;2022-12-20T11:11:14;11.20;99.90
8888;DHT22;4480;52.370;9.748;2022-12-20T11:13:41;11.20;99.90
8888;DHT22;4480;52.370;9.748;2022-12-20T11:16:28;11.30;99.90
8888;DHT22;4480;52.370;9.748;2022-12-20T11:19:21;11.40;99.90
8888;DHT22;4480;52.370;9.748;2022-12-20T11:21:57;11.40;99.90
8888;DHT22;4480;52.370;9.748;2022-12-20T11:24:32;11.50;99.90
8888;DHT22;4480;52.370;9.748;2022-12-20T11:27:10;11.50;99.90
8888;DHT22;4480;52.370;9.748;2022-12-20T11:30:06;11.50;99.90
8888;DHT22;4480;52.370;9.748;2022-12-20T11:32:46;11.50;99.90
8888;DHT22;4480;52.370;9.748;2022-12-20T11:35:19;11.60;99.90
8888;DHT22;4480;52.370;9.748;2022-12-20T11:37:55;11.60;99.90
8888;DHT22;4480;52.370;9.748;2022-12-20T11:40:30;11.70;99.90
8888;DHT22;4480;52.370;9.748;2022-12-20T11:43:09;11.70;99.90
8888;DHT22;4480;52.370;9.748;2022-12-20T11:45:44;11.70;99.90
8888;DHT22;4480;52.370;9.748;2022-12-20T11:48:29;11.70;99.90
8888;DHT22;4480;52.370;9.748;2022-12-20T11:51:05;11.70;99.90
8888;DHT22;4480;52.370;9.748;2022-12-20T11:53:37;11.70;99.90
8888;DHT22;4480;52.370;9.748;2022-12-20T11:56:08;11.70;99.90
8888;DHT22;4480;52.370;9.748;2022-12-20T11:58:46;11.60;99.90
8888;DHT22;4480;52.370;9.748;2022-12-20T12:01:17;11.50;99.90
8888;DHT22;4480;52.370;9.748;2022-12-20T12:03:52;11.50;99.90
8888;DHT22;4480;52.370;9.748;2022-12-20T12:06:25;11.50;99.90
8888;DHT22;4480;52.370;9.748;2022-12-20T12:09:05;11.40;99.90
8888;DHT22;4480;52.370;9.748;2022-12-20T12:11:37;11.40;99.90
8888;DHT22;4480;52.370;9.748;2022-12-20T12:14:05;11.40;99.90
8888;DHT22;4480;52.370;9.748;2022-12-20T12:16:38;11.40;99.90
8888;DHT22;4480;52.370;9.748;2022-12-20T12:19:08;11.40;99.90
8888;DHT22;4480;52.370;9.748;2022-12-20T12:21:39;11.40;99.90
8888;DHT22;4480;52.370;9.748;2022-12-20T12:24:18;11.40;99.90
8888;DHT22;4480;52.370;9.748;2022-12-20T12:26:45;11.40;99.90
8888;DHT22;4480;52.370;9.748;2022-12-20T12:29:14;11.40;99.90
8888;DHT22;4480;52.370;9.748;2022-12-20T12:31:44;11.40;99.90
8888;DHT22;4480;52.370;9.748;2022-12-20T12:34:22;11.40;99.90
8888;DHT22;4480;52.370;9.748;2022-12-20T12:40:07;11.50;99.90
8888;DHT22;4480;52.370;9.748;2022-12-20T12:43:08;11.50;99.90
8888;DHT22;4480;52.370;9.748;2022-12-20T12:45:43;11.60;99.90
8888;DHT22;4480;52.370;9.748;2022-12-20T12:48:16;11.60;99.90
8888;DHT22;4480;52.370;9.748;2022-12-20T12:50:47;11.70;99.90
8888;DHT22;4480;52.370;9.748;2022-12-20T12:53:17;11.70;99.90
8888;DHT22;4480;52.370;9.748;2022-12-20T12:55:48;11.70;99.90
8888;DHT22;4480;52.370;9.748;2022-12-20T12:58:36;11.70;99.90
8888;DHT22;4480;52.370;9.748;2022-12-20T13:01:05;11.70;99.90
8888;DHT22;4480;52.370;9.748;2022-12-20T13:03:42;11.70;99.90
8888;DHT22;4480;52.370;9.748;2022-12-20T13:09:40;11.60;99.90
8888;DHT22;4480;52.370;9.748;2022-12-20T13:18:26;11.60;99.90
8888;DHT22;4480;52.370;9.748;2022-12-20T13:24:50;11.60;99.90
8888;DHT22;4480;52.370;9.748;2022-12-20T13:27:25;11.50;99.90
8888;DHT22;4480;52.370;9.748;2022-12-20T13:29:59;11.50;99.90
8888;DHT22;4480;52.370;9.748;2022-12-20T13:32:52;11.50;99.90
8888;DHT22;4480;52.370;9.748;2022-12-20T13:35:43;11.50;99.90
8888;DHT22;4480;52.370;9.748;2022-12-20T13:38:37;11.60;99.90
8888;DHT22;4480;52.370;9.748;2022-12-20T13:41:11;11.60;99.90
8888;DHT22;4480;52.370;9.748;2022-12-20T13:43:44;11.50;99.90
8888;DHT22;4480;52.370;9.748;2022-12-20T13:46:13;11.50;99.90
8888;DHT22;4480;52.370;9.748;2022-12-20T13:48:49;11.50;99.90
8888;DHT22;4480;52.370;9.748;2022-12-20T13:51:20;11.50;99.90
8888;DHT22;4480;52.370;9.748;2022-12-20T13:53:51;11.50;99.90
8888;DHT22;4480;52.370;9.748;2022-12-20T13:56:30;11.40;99.90
8888;DHT22;4480;52.370;9.748;2022-12-20T13:59:04;11.40;99.90
8888;DHT22;4480;52.370;9.748;2022-12-20T14:01:32;11.30;99.90
8888;DHT22;4480;52.370;9.748;2022-12-20T14:04:03;11.30;99.90
8888;DHT22;4480;52.370;9.748;2022-12-20T14:06:33;11.30;99.90
8888;DHT22;4480;52.370;9.748;2022-12-20T14:09:00;11.20;99.90
8888;DHT22;4480;52.370;9.748;2022-12-20T14:11:27;11.20;99.90
8888;DHT22;4480;52.370;9.748;2022-12-20T14:13:56;11.20;99.90
8888;DHT22;4480;52.370;9.748;2022-12-20T14:16:24;11.20;99.90
8888;DHT22;4480;52.370;9.748;2022-12-20T14:19:00;11.20;99.90
8888;DHT22;4480;52.370;9.748;2022-12-20T14:21:28;11.20;99.90
8888;DHT22;4480;52.370;9.748;2022-12-20T14:23:57;11.10;99.90
8888;DHT22;4480;52.370;9.748;2022-12-20T14:26:26;11.10;99.90
8888;DHT22;4480;52.370;9.748;2022-12-20T14:28:55;11.00;99.90
8888;DHT22;4480;52.370;9.748;2022-12-20T14:31:24;11.00;99.90
8888;DHT22;4480;52.370;9.748;2022-12-20T14:34:01;11.00;99.90
8888;DHT22;4480;52.370;9.748;2022-12-20T14:36:28;11.00;99.90
8888;DHT22;4480;52.370;9.748;2022-12-20T14:38:57;11.00;99.90
8888;DHT22;4480;52.370;9.748;2022-12-20T14:41:33;11.00;99.90
8888;DHT22;4480;52.370;9.748;2022-12-20T14:44:03;11.00;99.90
8888;DHT22;4480;52.370;9.748;2022-12-20T14:46:38;11.00;99.90
8888;DHT22;4480;52.370;9.748;2022-12-20T14:49:20;11.00;99.90
8888;DHT22;4480;52.370;9.748;2022-12-20T14:51:48;11.10;99.90
8888;DHT22;4480;52.370;9.748;2022-12-20T14:54:18;11.10;99.90
8888;DHT22;4480;52.370;9.748;2022-12-20T14:56:47;11.10;99.90
8888;DHT22;4480;52.370;9.748;2022-12-20T14:59:17;11.10;99.90
8888;DHT22;4480;52.370;9.748;2022-12-20T15:01:49;11.10;99.90
8888;DHT22;4480;52.370;9.748;2022-12-20T15:04:24;11.10;99.90
8888;DHT22;4480;52.370;9.748;2022-12-20T15:06:55;11.10;99.90
8888;DHT22;4480;52.370;9.748;2022-12-20T15:09:24;11.10;99.90
8888;DHT22;4480;52.370;9.748;2022-12-20T15:11:51;11.10;99.90
8888;DHT22;4480;52.370;9.748;2022-12-20T15:14:27;11.10;99.90
8888;DHT22;4480;52.370;9.748;2022-12-20T15:16:57;11.10;99.90
8888;DHT22;4480;52.370;9.748;2022-12-20T15:19:24;11.10;99.90
8888;DHT22;4480;52.370;9.748;2022-12-20T15:21:50;11.10;99.90
8888;DHT22;4480;52.370;9.748;2022-12-20T15:24:19;11.10;99.90
8888;DHT22;4480;52.370;9.748;2022-12-20T15:26:48;11.10;99.90
8888;DHT22;4480;52.370;9.748;2022-12-20T15:29:16;11.10;99.90
8888;DHT22;4480;52.370;9.748;2022-12-20T15:31:44;11.10;99.90
8888;DHT22;4480;52.370;9.748;2022-12-20T15:34:14;11.10;99.90
8888;DHT22;4480;52.370;9.748;2022-12-20T15:36:44;11.10;99.90
8888;DHT22;4480;52.370;9.748;2022-12-20T15:39:12;11.10;99.90
8888;DHT22;4480;52.370;9.748;2022-12-20T15:41:40;11.00;99.90
8888;DHT22;4480;52.370;9.748;2022-12-20T15:44:13;11.00;99.90
8888;DHT22;4480;52.370;9.748;2022-12-20T15:46:40;11.00;99.90
8888;DHT22;4480;52.370;9.748;2022-12-20T15:49:12;11.00;99.90
8888;DHT22;4480;52.370;9.748;2022-12-20T15:51:40;11.00;99.90
8888;DHT22;4480;52.370;9.748;2022-12-20T15:54:22;11.00;99.90
8888;DHT22;4480;52.370;9.748;2022-12-20T15:56:51;11.00;99.90
8888;DHT22;4480;52.370;9.748;2022-12-20T15:59:19;11.00;99.90
8888;DHT22;4480;52.370;9.748;2022-12-20T16:01:46;11.00;99.90
8888;DHT22;4480;52.370;9.748;2022-12-20T16:04:14;11.00;99.90
8888;DHT22;4480;52.370;9.748;2022-12-20T16:06:41;11.00;99.90
8888;DHT22;4480;52.370;9.748;2022-12-20T16:09:08;11.00;99.90
8888;DHT22;4480;52.370;9.748;2022-12-20T16:11:35;11.10;99.90
8888;DHT22;4480;52.370;9.748;2022-12-20T16:14:02;11.10;99.90
8888;DHT22;4480;52.370;9.748;2022-12-20T16:16:33;11.10;99.90
8888;DHT22;4480;52.370;9.748;2022-12-20T16:19:01;11.00;99.90
8888;DHT22;4480;52.370;9.748;2022-12-20T16:21:31;11.00;99.90
8888;DHT22;4480;52.370;9.748;2022-12-20T16:23:59;11.00;99.90
8888;DHT22;4480;52.370;9.748;2022-12-20T16:26:26;11.00;99.90
8888;DHT22;4480;52.370;9.748;2022-12-20T16:28:54;11.00;99.90
8888;DHT22;4480;52.370;9.748;2022-12-20T16:31:23;11.00;99.90
8888;DHT22;4480;52.370;9.748;2022-12-20T16:33:52;11.00;99.90
8888;DHT22;4480;52.370;9.748;2022-12-20T16:36:20;11.00;99.90
8888;DHT22;4480;52.370;9.748;2022-12-20T16:38:47;11.00;99.90
8888;DHT22;4480;52.370;9.748;2022-12-20T16:41:15;11.00;99.90
8888;DHT22;4480;52.370;9.748;2022-12-20T16:43:43;11.00;99.90
8888;DHT22;4480;52.370;9.748;2022-12-20T16:46:11;11.00;99.90